Time;durP1;ratioP1;P1;durP2;ratioP2;P2;SDS_P1;SDS_P2;PMS_P1;PMS_P2;Temp;Humidity;BMP_temperature;BMP_pressure;BME280_temperature;BME280_humidity;BME280_pressure;Samples;Min_cycle;Max_cycle;Signal;HPM_P1;HPM_P2
2021/08/05 00:00:55;;;;;;;;;;;26.80;28.30;;;;;;21144462;28;20407;-66
2021/08/05 00:10:56;;;;;;;3.57;2.00;;;26.70;28.00;;;;;;21162131;28;20004;-67
2021/08/05 00:20:57;;;;;;;3.58;2.67;;;26.70;28.30;;;;;;21128141;28;20465;-65
2021/08/05 00:30:59;;;;;;;3.53;2.13;;;26.70;28.50;;;;;;21076386;28;20045;-69
2021/08/05 00:41:01;;;;;;;3.92;2.38;;;26.60;27.90;;;;;;21077557;28;20044;-69
2021/08/05 00:51:02;;;;;;;3.65;2.38;;;26.60;27.50;;;;;;21077181;28;20484;-69
2021/08/05 01:01:09;;;;;;;3.35;2.10;;;26.60;27.70;;;;;;21089074;28;20508;-67
2021/08/05 01:11:19;;;;;;;4.45;2.40;;;26.50;27.60;;;;;;21093147;28;20054;-69
2021/08/05 01:21:36;;;;;;;3.63;2.20;;;26.50;27.50;;;;;;21091180;28;20048;-65
2021/08/05 01:31:38;;;;;;;5.63;2.53;;;26.30;27.90;;;;;;21158335;28;20561;-66
2021/08/05 01:41:41;;;;;;;4.30;2.60;;;26.10;28.60;;;;;;21173586;28;20054;-69
2021/08/05 01:51:43;;;;;;;2.72;2.42;;;26.00;29.20;;;;;;21172960;28;20043;-66
2021/08/05 02:01:47;;;;;;;2.83;2.25;;;25.90;29.10;;;;;;21172057;28;20058;-67
2021/08/05 02:11:53;;;;;;;4.35;2.67;;;25.90;29.50;;;;;;21171347;28;20048;-70
2021/08/05 02:21:54;;;;;;;3.75;2.63;;;25.80;29.90;;;;;;21169962;28;20055;-67
2021/08/05 02:31:59;;;;;;;3.33;2.70;;;25.80;30.10;;;;;;21170278;28;20048;-70
2021/08/05 02:42:03;;;;;;;4.78;3.22;;;25.70;30.50;;;;;;21169352;28;20483;-66
2021/08/05 02:52:06;;;;;;;3.40;2.60;;;25.60;30.60;;;;;;21167687;28;20043;-66
2021/08/05 03:02:09;;;;;;;4.10;2.80;;;25.50;31.00;;;;;;21167021;28;20492;-70
2021/08/05 03:12:13;;;;;;;3.13;2.42;;;25.30;31.40;;;;;;21167220;28;20083;-66
2021/08/05 03:22:15;;;;;;;3.88;2.53;;;25.20;31.30;;;;;;21165845;28;20100;-69
2021/08/05 03:32:17;;;;;;;5.43;2.50;;;25.10;31.60;;;;;;21164131;28;20500;-70
2021/08/05 03:42:20;;;;;;;4.47;2.65;;;25.10;31.60;;;;;;21163599;28;20051;-69
2021/08/05 03:52:23;;;;;;;4.63;3.58;;;24.90;31.90;;;;;;21144445;28;20055;-69
2021/08/05 04:02:26;;;;;;;5.03;3.08;;;24.90;32.30;;;;;;21162949;28;20086;-70
2021/08/05 04:12:30;;;;;;;3.88;2.78;;;24.70;32.90;;;;;;21165044;28;20046;-70
2021/08/05 04:22:33;;;;;;;4.78;2.80;;;24.70;33.20;;;;;;21162259;28;20054;-65
2021/08/05 04:32:35;;;;;;;3.28;2.80;;;24.70;33.00;;;;;;21169987;28;20499;-70
2021/08/05 04:42:38;;;;;;;4.75;2.97;;;24.70;33.10;;;;;;21182002;28;20135;-70
2021/08/05 04:52:40;;;;;;;6.30;2.70;;;24.70;33.50;;;;;;21181756;28;20054;-71
2021/08/05 05:02:42;;;;;;;;;;;24.70;34.40;;;;;;21185519;28;20097;-68
2021/08/05 05:12:45;;;;;;;4.20;3.47;;;24.40;35.00;;;;;;21191680;28;19927;-66
2021/08/05 05:22:47;;;;;;;4.40;3.10;;;24.00;35.40;;;;;;21177155;28;20079;-64
2021/08/05 05:32:49;;;;;;;5.57;3.03;;;23.80;35.90;;;;;;21159041;28;20059;-67
2021/08/05 05:42:50;;;;;;;10.05;3.70;;;23.80;36.00;;;;;;21178928;28;20047;-67
2021/08/05 05:52:53;;;;;;;9.05;3.90;;;23.80;36.50;;;;;;21179605;28;20100;-64
2021/08/05 06:02:55;;;;;;;7.03;3.77;;;23.90;37.40;;;;;;21178876;28;20092;-66
2021/08/05 06:13:02;;;;;;;4.88;3.47;;;23.70;37.30;;;;;;21157893;28;20108;-66
2021/08/05 06:23:07;;;;;;;4.72;3.08;;;23.60;37.10;;;;;;21182918;28;20047;-68
2021/08/05 06:33:08;;;;;;;8.80;2.97;;;23.60;36.80;;;;;;21184296;28;20078;-69
2021/08/05 06:43:08;;;;;;;10.55;2.97;;;23.60;37.10;;;;;;21183060;28;20071;-67
2021/08/05 06:53:09;;;;;;;6.22;2.88;;;24.10;36.50;;;;;;21175834;28;20047;-70
2021/08/05 07:03:12;;;;;;;5.63;2.92;;;24.60;35.00;;;;;;21174436;28;20044;-66
2021/08/05 07:13:13;;;;;;;6.38;3.38;;;25.20;34.40;;;;;;21173603;28;20083;-67
2021/08/05 07:23:13;;;;;;;9.30;3.53;;;25.90;34.10;;;;;;21175261;28;20488;-66
2021/08/05 07:33:21;;;;;;;9.33;4.03;;;26.30;33.60;;;;;;21180089;28;20089;-68
2021/08/05 07:43:23;;;;;;;20.67;4.88;;;26.80;33.10;;;;;;21165282;28;20047;-69
2021/08/05 07:53:25;;;;;;;11.63;4.60;;;27.30;32.50;;;;;;21165629;28;20122;-67
2021/08/05 08:03:27;;;;;;;9.20;4.00;;;27.90;31.70;;;;;;21168098;28;20402;-65
2021/08/05 08:13:30;;;;;;;10.02;3.50;;;28.30;31.00;;;;;;21179012;28;20047;-69
2021/08/05 08:23:32;;;;;;;11.93;3.70;;;28.60;30.50;;;;;;21166916;28;20056;-65
2021/08/05 08:33:40;;;;;;;19.33;3.92;;;29.00;29.90;;;;;;21164173;28;20097;-67
2021/08/05 08:43:49;;;;;;;7.10;3.45;;;29.50;29.70;;;;;;21162596;28;20054;-67
2021/08/05 08:53:53;;;;;;;13.90;4.07;;;29.70;29.50;;;;;;21143268;28;20051;-67
2021/08/05 09:03:56;;;;;;;6.90;2.67;;;30.00;28.80;;;;;;21142914;28;20100;-67
2021/08/05 09:13:59;;;;;;;6.50;2.60;;;30.20;28.40;;;;;;21159393;28;20113;-67
2021/08/05 09:24:09;;;;;;;4.72;2.70;;;30.60;28.40;;;;;;21174299;28;20059;-70
2021/08/05 09:34:19;;;;;;;2.55;1.83;;;31.00;27.20;;;;;;21181967;28;20079;-66
2021/08/05 09:44:21;;;;;;;21.03;7.63;;;31.30;27.70;;;;;;21197690;27;20051;-66
2021/08/05 09:54:22;;;;;;;15.30;6.05;;;31.40;27.10;;;;;;21250785;27;20088;-68
2021/08/05 10:04:28;;;;;;;12.10;5.40;;;31.60;26.70;;;;;;21246784;27;20430;-73
2021/08/05 10:14:29;;;;;;;4.95;2.47;;;31.40;27.10;;;;;;21253146;27;20093;-68
2021/08/05 10:24:56;;;;;;;4.00;2.17;;;31.60;26.00;;;;;;21240977;27;20060;-67
2021/08/05 10:34:58;;;;;;;5.97;3.17;;;31.30;27.20;;;;;;21085183;28;20059;-68
2021/08/05 10:45:03;;;;;;;4.80;2.38;;;31.50;27.50;;;;;;21061022;28;20051;-71
2021/08/05 10:55:20;;;;;;;4.93;3.90;;;31.60;27.20;;;;;;21085761;28;20051;-66
2021/08/05 11:05:22;;;;;;;6.95;4.93;;;31.70;26.50;;;;;;21083336;28;20134;-67
2021/08/05 11:15:29;;;;;;;3.78;2.20;;;31.80;25.90;;;;;;21081569;28;20044;-66
2021/08/05 11:25:49;;;;;;;4.43;3.13;;;32.00;25.00;;;;;;21096451;28;20052;-66
2021/08/05 11:36:14;;;;;;;4.55;2.05;;;32.10;24.60;;;;;;21250025;27;20051;-66
2021/08/05 11:46:19;;;;;;;2.45;2.25;;;32.10;24.60;;;;;;21248682;27;20096;-66
2021/08/05 11:56:21;;;;;;;3.00;2.05;;;32.10;23.90;;;;;;21230442;27;20039;-67
2021/08/05 12:06:24;;;;;;;5.10;2.95;;;32.30;23.40;;;;;;21248867;27;20503;-69
2021/08/05 12:16:26;;;;;;;3.10;1.88;;;32.50;23.20;;;;;;21249250;27;20057;-67
2021/08/05 12:26:36;;;;;;;3.92;2.60;;;32.70;22.70;;;;;;21248593;28;20066;-68
2021/08/05 12:36:38;;;;;;;2.83;2.00;;;32.80;23.30;;;;;;21230493;28;20047;-66
2021/08/05 12:46:44;;;;;;;4.03;2.50;;;32.90;22.60;;;;;;21247082;28;20087;-66
2021/08/05 12:56:52;;;;;;;4.32;2.90;;;33.00;22.20;;;;;;21260050;27;20044;-66
2021/08/05 13:06:57;;;;;;;2.80;2.38;;;33.20;22.10;;;;;;21262378;27;20055;-67
2021/08/05 13:17:10;;;;;;;3.20;2.45;;;33.20;22.10;;;;;;21261283;27;20051;-72
2021/08/05 13:27:17;;;;;;;2.58;2.10;;;33.50;21.60;;;;;;21260808;27;20051;-70
2021/08/05 13:37:28;;;;;;;3.10;2.70;;;33.50;21.70;;;;;;21243790;27;20132;-71
2021/08/05 13:47:31;;;;;;;3.38;3.00;;;33.60;22.40;;;;;;21263597;27;20406;-68
2021/08/05 13:57:33;;;;;;;3.40;2.35;;;33.70;22.00;;;;;;21225773;27;20040;-71
2021/08/05 14:07:36;;;;;;;3.63;2.47;;;33.80;22.20;;;;;;21258027;27;20094;-67
2021/08/05 14:17:38;;;;;;;5.13;2.53;;;34.00;21.70;;;;;;21259777;27;20043;-67
2021/08/05 14:27:39;;;;;;;4.32;2.15;;;34.00;21.70;;;;;;21257443;27;20051;-68
2021/08/05 14:37:41;;;;;;;7.32;2.80;;;34.00;22.10;;;;;;21256886;27;20054;-68
2021/08/05 14:47:43;;;;;;;4.20;2.42;;;34.10;22.20;;;;;;21255756;27;20088;-67
2021/08/05 14:57:44;;;;;;;2.38;1.40;;;34.40;22.00;;;;;;21256082;27;20043;-71
2021/08/05 15:07:46;;;;;;;2.38;1.60;;;34.60;21.40;;;;;;21252793;27;20180;-70
2021/08/05 15:17:48;;;;;;;3.33;1.60;;;34.60;21.30;;;;;;21233144;27;20100;-70
2021/08/05 15:27:49;;;;;;;2.95;1.98;;;34.70;21.50;;;;;;21252515;27;20051;-70
2021/08/05 15:37:51;;;;;;;2.45;1.77;;;34.60;21.50;;;;;;21249576;27;20138;-71
2021/08/05 15:47:54;;;;;;;2.42;1.27;;;34.60;21.50;;;;;;21249462;27;20043;-70
2021/08/05 15:57:56;;;;;;;4.10;1.80;;;34.60;21.60;;;;;;21248980;27;20051;-70
2021/08/05 16:07:59;;;;;;;2.75;1.40;;;34.50;21.50;;;;;;21247237;27;20362;-69
2021/08/05 16:18:00;;;;;;;3.50;1.52;;;34.40;21.40;;;;;;21248955;27;20047;-71
2021/08/05 16:28:04;;;;;;;2.92;1.60;;;34.40;21.20;;;;;;21260385;27;20147;-66
2021/08/05 16:38:06;;;;;;;4.72;1.67;;;34.30;21.50;;;;;;21285522;27;20047;-67
2021/08/05 16:48:08;;;;;;;4.70;1.92;;;34.20;21.30;;;;;;21265004;27;20419;-66
2021/08/05 16:58:10;;;;;;;5.72;1.98;;;34.20;21.20;;;;;;21245790;27;20066;-68
2021/08/05 17:08:13;;;;;;;2.55;1.50;;;34.20;21.50;;;;;;21243948;27;20055;-67
2021/08/05 17:18:14;;;;;;;4.65;2.33;;;34.10;21.50;;;;;;21263103;27;20074;-68
2021/08/05 17:28:15;;;;;;;4.50;1.85;;;34.00;21.70;;;;;;21262826;27;20507;-68
2021/08/05 17:38:17;;;;;;;3.58;1.50;;;33.90;21.80;;;;;;21261244;27;20043;-71
2021/08/05 17:48:20;;;;;;;2.83;1.58;;;33.90;22.00;;;;;;21259398;27;20132;-68
2021/08/05 17:58:21;;;;;;;3.25;1.27;;;33.70;22.30;;;;;;21260173;27;20408;-72
2021/08/05 18:08:23;;;;;;;3.05;1.35;;;33.50;22.20;;;;;;21293610;27;20051;-71
2021/08/05 18:18:25;;;;;;;3.15;1.65;;;33.50;22.60;;;;;;21268726;27;20055;-72
2021/08/05 18:28:27;;;;;;;4.53;1.90;;;33.30;23.10;;;;;;21257390;27;20127;-71
2021/08/05 18:38:29;;;;;;;3.55;1.20;;;33.10;23.50;;;;;;21257301;27;20122;-71
2021/08/05 18:48:30;;;;;;;4.78;1.70;;;33.00;23.60;;;;;;21255741;27;20471;-72
2021/08/05 18:58:32;;;;;;;4.82;2.25;;;32.80;23.80;;;;;;21254532;27;20043;-73
2021/08/05 19:08:34;;;;;;;5.28;1.92;;;32.70;23.90;;;;;;21254565;27;20095;-73
2021/08/05 19:18:35;;;;;;;3.75;1.42;;;32.40;24.20;;;;;;21255168;27;20102;-72
2021/08/05 19:28:37;;;;;;;3.20;1.60;;;32.20;24.50;;;;;;21252439;27;20050;-70
2021/08/05 19:38:38;;;;;;;2.95;1.42;;;32.10;24.90;;;;;;21253053;27;20039;-72
2021/08/05 19:48:41;;;;;;;3.88;1.75;;;31.80;25.00;;;;;;21252566;27;20411;-75
2021/08/05 19:58:42;;;;;;;6.85;2.42;;;31.60;25.20;;;;;;21251375;27;20127;-75
2021/08/05 20:08:44;;;;;;;5.35;2.22;;;31.40;25.50;;;;;;21249517;27;20051;-76
2021/08/05 20:18:45;;;;;;;6.20;3.88;;;31.20;25.60;;;;;;21230240;27;20043;-73
2021/08/05 20:28:47;;;;;;;7.13;3.33;;;31.10;25.90;;;;;;21248167;28;20407;-74
2021/08/05 20:38:50;;;;;;;4.30;1.70;;;30.90;26.00;;;;;;21247774;28;20069;-73
2021/08/05 20:48:52;;;;;;;3.92;1.40;;;30.70;26.20;;;;;;21249436;28;20047;-74
2021/08/05 20:58:54;;;;;;;5.30;2.40;;;30.60;26.20;;;;;;21250326;28;20051;-70
2021/08/05 21:08:55;;;;;;;4.80;1.88;;;30.30;26.60;;;;;;21250982;28;20467;-68
2021/08/05 21:18:57;;;;;;;7.63;2.85;;;30.20;27.10;;;;;;21263390;27;20043;-68
2021/08/05 21:28:58;;;;;;;5.00;1.65;;;30.10;27.20;;;;;;21254882;27;20519;-70
2021/08/05 21:39:00;;;;;;;4.30;1.50;;;29.90;27.70;;;;;;21263887;27;20051;-67
2021/08/05 21:49:03;;;;;;;5.72;1.48;;;29.80;27.40;;;;;;21273193;27;20134;-70
2021/08/05 21:59:07;;;;;;;5.28;1.73;;;29.60;27.70;;;;;;21323000;27;20046;-68
2021/08/05 22:09:08;;;;;;;6.45;2.20;;;29.50;28.00;;;;;;21262037;27;20092;-68
2021/08/05 22:19:10;;;;;;;6.88;4.57;;;29.30;28.40;;;;;;21239074;27;20054;-70
2021/08/05 22:29:12;;;;;;;5.88;2.22;;;29.10;28.70;;;;;;21264720;27;20051;-68
2021/08/05 22:39:13;;;;;;;8.75;5.07;;;29.10;28.70;;;;;;21255870;27;20039;-67
2021/08/05 22:49:14;;;;;;;5.72;2.45;;;29.00;29.10;;;;;;21255561;27;20054;-68
2021/08/05 22:59:16;;;;;;;7.25;2.10;;;28.80;29.40;;;;;;21254019;27;20051;-70
2021/08/05 23:09:17;;;;;;;24.35;16.55;;;28.70;29.70;;;;;;21254089;27;20047;-64
2021/08/05 23:19:18;;;;;;;9.82;5.03;;;28.60;30.40;;;;;;21235382;27;20054;-71
2021/08/05 23:29:22;;;;;;;25.95;18.25;;;28.50;30.60;;;;;;21252644;27;20050;-71
2021/08/05 23:39:24;;;;;;;9.57;4.93;;;28.40;31.40;;;;;;21232045;27;20043;-68
2021/08/05 23:49:27;;;;;;;13.13;9.07;;;28.20;31.50;;;;;;21251104;27;20129;-69
2021/08/05 23:59:29;;;;;;;10.10;3.17;;;28.10;31.70;;;;;;21231760;27;20066;-72
